Barlestone, United Kingdom
Current Conditions -  °F | °C
As of 9:50 PM on Sunday 23 Nov 2014 (Local Time) from EGNX Reporting Station
Clear Clear  
Wind Chill: 30°   Ceiling: Unl
Heat Index: 37°   Visibility: 6mi
Dew Point: 36°   Wind: 12mph
Humidity: 93%   Direction: 260°W
Pressure: 30.15"   Gusts: NA
Location:  52.65°N, 1.37°W
Report Text: EGNX 232150Z 26010KT CAVOK 03/02 Q1021
Loading
Personal Weather Stations






























Interactive Weather Map New forecast layout! Learn more

10-Day Weather Forecast

Advertisements
Track Severe Weather on mobile